createdAt,value
2023-04-29T00:00:42.909Z,4.00
2023-04-29T00:03:10.632Z,3.70
2023-04-29T00:05:38.503Z,4.10
2023-04-29T00:08:06.392Z,3.70
2023-04-29T00:10:34.412Z,3.45
2023-04-29T00:13:02.053Z,2.67
2023-04-29T00:15:29.833Z,3.25
2023-04-29T00:17:57.432Z,3.15
2023-04-29T00:20:24.970Z,3.47
2023-04-29T00:22:52.684Z,3.30
2023-04-29T00:25:20.760Z,3.10
2023-04-29T00:27:48.415Z,3.70
2023-04-29T00:30:16.253Z,3.38
2023-04-29T00:32:44.874Z,2.60
2023-04-29T00:35:12.503Z,2.83
2023-04-29T00:37:40.284Z,2.88
2023-04-29T00:40:08.725Z,2.97
2023-04-29T00:42:36.638Z,2.90
2023-04-29T00:45:05.154Z,3.40
2023-04-29T00:47:34.510Z,3.08
2023-04-29T00:50:02.082Z,3.10
2023-04-29T00:52:31.667Z,2.90
2023-04-29T00:54:59.927Z,3.13
2023-04-29T00:57:30.410Z,3.30
2023-04-29T00:59:58.991Z,3.33
2023-04-29T01:02:26.896Z,3.72
2023-04-29T01:04:54.703Z,3.55
2023-04-29T01:07:51.573Z,3.88
2023-04-29T01:10:32.271Z,4.07
2023-04-29T01:13:19.348Z,4.50
2023-04-29T01:15:59.451Z,3.80
2023-04-29T01:18:30.480Z,3.95
2023-04-29T01:20:59.195Z,3.70
2023-04-29T01:23:30.039Z,4.13
2023-04-29T01:25:58.720Z,4.50
2023-04-29T01:28:54.747Z,3.63
2023-04-29T01:31:31.386Z,4.15
2023-04-29T01:34:09.610Z,4.30
2023-04-29T01:36:45.025Z,3.80
2023-04-29T01:39:26.031Z,3.10
2023-04-29T01:42:25.509Z,3.28
2023-04-29T01:44:55.416Z,3.63
2023-04-29T01:47:23.458Z,4.10
2023-04-29T01:49:54.351Z,2.88
2023-04-29T01:52:23.297Z,3.75
2023-04-29T01:54:57.432Z,3.47
2023-04-29T01:57:27.348Z,4.03
2023-04-29T02:00:09.230Z,3.80
2023-04-29T02:02:47.525Z,3.47
2023-04-29T02:05:36.750Z,3.50
2023-04-29T02:08:04.642Z,3.50
2023-04-29T02:10:34.124Z,3.30
2023-04-29T02:13:21.923Z,3.88
2023-04-29T02:15:49.757Z,3.53
2023-04-29T02:18:17.390Z,3.80
2023-04-29T02:20:45.332Z,3.72
2023-04-29T02:23:13.130Z,3.20
2023-04-29T02:25:41.756Z,3.75
2023-04-29T02:28:09.871Z,3.33
2023-04-29T02:30:40.558Z,3.65
2023-04-29T02:33:08.757Z,3.28
2023-04-29T02:35:36.528Z,3.63
2023-04-29T02:38:04.182Z,3.85
2023-04-29T02:40:32.666Z,3.67
2023-04-29T02:43:01.625Z,3.70
2023-04-29T02:45:29.774Z,3.40
2023-04-29T02:47:57.499Z,3.17
2023-04-29T02:50:25.669Z,3.33
2023-04-29T02:52:53.283Z,3.33
2023-04-29T02:55:20.921Z,3.22
2023-04-29T02:57:48.515Z,3.63
2023-04-29T03:00:16.244Z,3.33
2023-04-29T03:02:44.004Z,3.03
2023-04-29T03:05:11.727Z,3.25
2023-04-29T03:07:39.629Z,3.40
2023-04-29T03:10:07.799Z,2.78
2023-04-29T03:12:37.544Z,3.15
2023-04-29T03:15:07.217Z,3.20
2023-04-29T03:17:35.470Z,2.90
2023-04-29T03:20:04.075Z,2.60
2023-04-29T03:22:31.841Z,3.22
2023-04-29T03:24:59.400Z,2.72
2023-04-29T03:27:27.998Z,3.35
2023-04-29T03:29:55.857Z,2.95
2023-04-29T03:32:24.248Z,3.50
2023-04-29T03:34:52.084Z,3.00
2023-04-29T03:37:35.384Z,3.25
2023-04-29T03:40:15.897Z,3.17
2023-04-29T03:42:43.413Z,3.00
2023-04-29T03:45:13.285Z,2.83
2023-04-29T03:47:41.288Z,2.67
2023-04-29T03:50:09.332Z,3.58
2023-04-29T03:52:37.384Z,2.88
2023-04-29T03:55:10.753Z,2.67
2023-04-29T03:57:40.929Z,3.20
2023-04-29T04:02:52.296Z,2.97
2023-04-29T04:05:21.127Z,2.95
2023-04-29T04:07:54.151Z,2.63
2023-04-29T04:10:39.937Z,2.92
2023-04-29T04:13:18.758Z,3.20
2023-04-29T04:15:51.386Z,3.20
2023-04-29T04:18:19.113Z,3.00
2023-04-29T04:20:47.368Z,3.25
2023-04-29T04:23:15.041Z,2.85
2023-04-29T04:25:48.274Z,2.63
2023-04-29T04:28:47.850Z,2.03
2023-04-29T04:31:31.974Z,2.47
2023-04-29T04:34:00.066Z,2.50
2023-04-29T04:36:29.472Z,2.53
2023-04-29T04:38:57.135Z,2.40
2023-04-29T04:41:24.802Z,2.05
2023-04-29T04:43:53.587Z,1.90
2023-04-29T04:46:39.657Z,2.00
2023-04-29T04:49:13.942Z,2.05
2023-04-29T04:51:49.208Z,2.05
2023-04-29T04:54:16.998Z,2.15
2023-04-29T04:56:44.815Z,1.98
2023-04-29T04:59:12.361Z,1.85
2023-04-29T05:01:41.832Z,2.20
2023-04-29T05:04:09.861Z,1.98
2023-04-29T05:06:38.322Z,2.13
2023-04-29T05:09:06.597Z,1.98
2023-04-29T05:11:35.528Z,2.40
2023-04-29T05:14:10.426Z,1.90
2023-04-29T05:16:38.457Z,2.30
2023-04-29T05:19:06.161Z,1.90
2023-04-29T05:21:37.799Z,1.83
2023-04-29T05:24:06.298Z,2.05
2023-04-29T05:26:33.932Z,2.58
2023-04-29T05:29:02.579Z,2.90
2023-04-29T05:31:35.760Z,4.88
2023-04-29T05:34:05.841Z,3.80
2023-04-29T05:36:33.884Z,2.40
2023-04-29T05:39:01.502Z,2.60
2023-04-29T05:41:30.052Z,3.40
2023-04-29T05:43:57.606Z,2.85
2023-04-29T05:46:25.413Z,3.60
2023-04-29T05:48:53.045Z,2.65
2023-04-29T05:51:20.561Z,2.88
2023-04-29T05:53:49.887Z,3.15
2023-04-29T05:56:18.173Z,3.00
2023-04-29T05:58:45.926Z,3.10
2023-04-29T06:01:13.566Z,2.40
2023-04-29T06:03:41.996Z,2.50
2023-04-29T06:06:28.952Z,2.70
2023-04-29T06:09:27.523Z,3.05
2023-04-29T06:11:58.295Z,3.65
2023-04-29T06:14:26.005Z,3.05
2023-04-29T06:16:54.127Z,3.13
2023-04-29T06:19:22.080Z,2.85
2023-04-29T06:21:50.523Z,3.42
2023-04-29T06:24:18.513Z,3.60
2023-04-29T06:26:47.020Z,3.38
2023-04-29T06:29:14.621Z,2.92
2023-04-29T06:31:42.173Z,3.08
2023-04-29T06:34:10.937Z,5.07
2023-04-29T06:36:48.545Z,6.78
2023-04-29T06:39:30.279Z,3.55
2023-04-29T06:42:18.537Z,3.67
2023-04-29T06:45:05.483Z,3.10
2023-04-29T06:47:57.117Z,3.83
2023-04-29T06:50:36.696Z,2.83
2023-04-29T06:53:07.885Z,3.17
2023-04-29T06:55:35.986Z,2.97
2023-04-29T06:58:05.628Z,17.10
2023-04-29T07:00:34.961Z,5.80
2023-04-29T07:03:02.973Z,3.35
2023-04-29T07:05:31.012Z,2.65
2023-04-29T07:07:58.635Z,2.63
2023-04-29T07:10:27.891Z,2.58
2023-04-29T07:12:55.713Z,3.13
2023-04-29T07:15:23.287Z,2.90
2023-04-29T07:17:50.904Z,5.03
2023-04-29T07:20:20.727Z,3.22
2023-04-29T07:25:17.962Z,3.17
2023-04-29T07:27:46.194Z,14.98
2023-04-29T07:30:13.928Z,5.28
2023-04-29T07:32:42.028Z,7.03
2023-04-29T07:35:09.811Z,5.13
2023-04-29T07:37:37.965Z,14.77
2023-04-29T07:40:06.272Z,5.43
2023-04-29T07:42:33.982Z,3.10
2023-04-29T07:45:02.272Z,2.67
2023-04-29T07:47:30.136Z,3.10
2023-04-29T07:49:57.721Z,3.10
2023-04-29T07:52:25.429Z,3.60
2023-04-29T07:54:56.473Z,3.80
2023-04-29T07:57:24.718Z,9.40
2023-04-29T07:59:55.690Z,3.75
2023-04-29T08:02:23.863Z,3.40
2023-04-29T08:04:54.915Z,3.78
2023-04-29T08:09:52.462Z,3.15
2023-04-29T08:12:20.267Z,3.25
2023-04-29T08:14:48.328Z,3.55
2023-04-29T08:17:15.983Z,4.20
2023-04-29T08:19:43.552Z,3.70
2023-04-29T08:22:12.335Z,4.82
2023-04-29T08:24:43.015Z,3.47
2023-04-29T08:27:11.198Z,3.45
2023-04-29T08:29:39.516Z,4.50
2023-04-29T08:32:07.781Z,5.57
2023-04-29T08:34:36.451Z,3.60
2023-04-29T08:37:04.119Z,4.38
2023-04-29T08:39:32.023Z,4.88
2023-04-29T08:42:10.409Z,4.53
2023-04-29T08:44:39.677Z,4.30
2023-04-29T08:47:07.358Z,4.47
2023-04-29T08:49:38.213Z,3.72
2023-04-29T08:52:06.382Z,4.53
2023-04-29T08:54:36.578Z,4.43
2023-04-29T08:57:04.362Z,4.90
2023-04-29T08:59:32.446Z,4.15
2023-04-29T09:01:59.984Z,5.10
2023-04-29T09:04:40.880Z,4.93
2023-04-29T09:07:08.600Z,4.53
2023-04-29T09:09:36.395Z,4.47
2023-04-29T09:12:04.645Z,5.00
2023-04-29T09:14:35.171Z,3.92
2023-04-29T09:17:02.706Z,3.33
2023-04-29T09:19:32.152Z,3.55
2023-04-29T09:22:00.092Z,3.80
2023-04-29T09:24:28.499Z,4.20
2023-04-29T09:26:59.052Z,5.37
2023-04-29T09:29:26.689Z,5.43
2023-04-29T09:31:54.264Z,5.80
2023-04-29T09:34:36.527Z,5.13
2023-04-29T09:37:04.118Z,4.80
2023-04-29T09:39:39.069Z,4.25
2023-04-29T09:42:07.007Z,4.43
2023-04-29T09:44:37.983Z,4.82
2023-04-29T09:47:07.517Z,6.05
2023-04-29T09:49:37.511Z,5.82
2023-04-29T09:52:06.329Z,5.88
2023-04-29T09:54:36.601Z,3.92
2023-04-29T09:57:07.844Z,4.53
2023-04-29T09:59:36.673Z,4.82
2023-04-29T10:02:15.767Z,4.35
2023-04-29T10:04:45.473Z,4.30
2023-04-29T10:07:17.271Z,4.57
2023-04-29T10:09:49.303Z,4.45
2023-04-29T10:12:18.681Z,4.05
2023-04-29T10:15:06.885Z,3.70
2023-04-29T10:17:43.587Z,4.35
2023-04-29T10:20:12.168Z,4.75
2023-04-29T10:22:48.033Z,4.20
2023-04-29T10:25:17.123Z,4.70
2023-04-29T10:27:44.983Z,5.32
2023-04-29T10:30:16.917Z,5.20
2023-04-29T10:32:51.180Z,6.00
2023-04-29T10:35:20.683Z,5.30
2023-04-29T10:37:49.055Z,5.85
2023-04-29T10:40:28.490Z,5.93
2023-04-29T10:42:56.306Z,7.13
2023-04-29T10:45:28.873Z,7.20
2023-04-29T10:48:10.850Z,8.95
2023-04-29T10:50:47.534Z,10.15
2023-04-29T10:53:15.733Z,10.98
2023-04-29T10:55:43.557Z,11.15
2023-04-29T10:58:36.989Z,11.13
2023-04-29T11:01:05.259Z,11.43
2023-04-29T11:04:00.406Z,10.68
2023-04-29T11:06:35.053Z,8.20
2023-04-29T11:09:12.735Z,7.60
2023-04-29T11:12:00.875Z,6.00
2023-04-29T11:14:42.022Z,6.00
2023-04-29T11:17:13.844Z,5.57
2023-04-29T11:19:43.138Z,5.70
2023-04-29T11:22:21.263Z,8.23
2023-04-29T11:25:07.467Z,9.43
2023-04-29T11:27:39.230Z,8.43
2023-04-29T11:30:07.801Z,9.55
2023-04-29T11:32:37.710Z,10.05
2023-04-29T11:35:18.540Z,12.02
2023-04-29T11:37:47.110Z,10.98
2023-04-29T11:40:14.827Z,12.80
2023-04-29T11:42:44.572Z,12.50
2023-04-29T11:45:12.597Z,10.25
2023-04-29T11:47:43.373Z,10.35
2023-04-29T11:50:11.469Z,9.98
2023-04-29T11:52:42.194Z,10.18
2023-04-29T11:55:10.185Z,9.20
2023-04-29T11:57:39.323Z,9.20
2023-04-29T12:00:16.903Z,10.35
2023-04-29T12:02:49.006Z,10.05
2023-04-29T12:05:19.629Z,9.13
2023-04-29T12:07:49.044Z,8.50
2023-04-29T12:10:16.604Z,7.90
2023-04-29T12:12:45.696Z,9.23
2023-04-29T12:15:13.335Z,8.93
2023-04-29T12:17:41.320Z,9.10
2023-04-29T12:20:11.091Z,7.88
2023-04-29T12:22:39.241Z,7.65
2023-04-29T12:25:08.096Z,6.00
2023-04-29T12:27:36.925Z,6.50
2023-04-29T12:30:09.706Z,5.25
2023-04-29T12:32:37.823Z,5.32
2023-04-29T12:35:05.791Z,5.07
2023-04-29T12:37:33.869Z,4.93
2023-04-29T12:40:01.746Z,5.25
2023-04-29T12:42:36.549Z,5.15
2023-04-29T12:45:04.852Z,6.18
2023-04-29T12:47:37.402Z,6.80
2023-04-29T12:50:07.264Z,7.25
2023-04-29T12:52:36.777Z,7.35
2023-04-29T12:55:05.041Z,7.97
2023-04-29T12:57:32.980Z,6.90
2023-04-29T13:00:00.595Z,7.38
2023-04-29T13:02:28.526Z,7.35
2023-04-29T13:04:56.576Z,7.32
2023-04-29T13:07:24.727Z,6.97
2023-04-29T13:09:52.325Z,6.55
2023-04-29T13:12:19.902Z,6.82
2023-04-29T13:14:47.817Z,6.55
2023-04-29T13:17:15.719Z,6.13
2023-04-29T13:19:51.806Z,6.30
2023-04-29T13:22:19.980Z,5.88
2023-04-29T13:24:47.811Z,4.90
2023-04-29T13:27:15.534Z,4.57
2023-04-29T13:29:43.181Z,4.70
2023-04-29T13:32:10.902Z,4.85
2023-04-29T13:34:38.599Z,4.47
2023-04-29T13:37:06.164Z,4.60
2023-04-29T13:39:38.142Z,3.90
2023-04-29T13:42:06.677Z,4.53
2023-04-29T13:44:46.143Z,4.70
2023-04-29T13:47:25.210Z,4.68
2023-04-29T13:50:22.750Z,4.15
2023-04-29T14:00:38.135Z,4.40
2023-04-29T14:03:04.681Z,4.07
2023-04-29T14:05:33.933Z,3.15
2023-04-29T14:08:02.849Z,3.60
2023-04-29T14:10:31.542Z,3.90
2023-04-29T14:12:59.369Z,4.22
2023-04-29T14:15:27.699Z,4.10
2023-04-29T14:17:57.350Z,3.60
2023-04-29T14:20:27.200Z,3.63
2023-04-29T14:22:54.887Z,4.38
2023-04-29T14:25:26.595Z,4.15
2023-04-29T14:27:56.389Z,3.80
2023-04-29T14:30:25.083Z,3.72
2023-04-29T14:32:53.155Z,3.78
2023-04-29T14:35:21.785Z,3.88
2023-04-29T14:37:50.753Z,4.40
2023-04-29T14:40:19.498Z,3.63
2023-04-29T14:42:47.671Z,3.78
2023-04-29T14:45:17.394Z,4.18
2023-04-29T14:47:45.695Z,3.90
2023-04-29T14:50:17.116Z,4.03
2023-04-29T14:52:46.650Z,4.00
2023-04-29T14:55:19.124Z,4.03
2023-04-29T14:57:47.630Z,4.50
2023-04-29T15:00:15.885Z,3.45
2023-04-29T15:02:43.982Z,3.70
2023-04-29T15:05:12.241Z,4.15
2023-04-29T15:07:40.813Z,3.70
2023-04-29T15:10:10.566Z,4.00
2023-04-29T15:12:38.766Z,4.43
2023-04-29T15:15:09.250Z,4.80
2023-04-29T15:17:38.334Z,4.00
2023-04-29T15:20:07.699Z,4.10
2023-04-29T15:22:35.647Z,3.80
2023-04-29T15:25:03.677Z,4.30
2023-04-29T15:27:33.589Z,4.53
2023-04-29T15:30:01.466Z,6.05
2023-04-29T15:32:32.534Z,5.20
2023-04-29T15:35:04.049Z,5.93
2023-04-29T15:37:32.841Z,4.68
2023-04-29T15:40:02.454Z,5.57
2023-04-29T15:42:30.264Z,4.70
2023-04-29T15:44:57.934Z,4.20
2023-04-29T15:47:26.010Z,4.63
2023-04-29T15:49:58.649Z,3.88
2023-04-29T15:52:26.907Z,3.60
2023-04-29T15:54:55.723Z,3.60
2023-04-29T15:57:23.675Z,4.40
2023-04-29T15:59:52.253Z,3.30
2023-04-29T16:02:21.391Z,3.63
2023-04-29T16:04:49.162Z,3.22
2023-04-29T16:07:17.615Z,3.20
2023-04-29T16:09:46.096Z,2.90
2023-04-29T16:12:14.193Z,3.03
2023-04-29T16:14:42.146Z,2.88
2023-04-29T16:17:09.943Z,3.30
2023-04-29T16:19:37.868Z,3.58
2023-04-29T16:22:05.580Z,3.38
2023-04-29T16:24:33.325Z,3.20
2023-04-29T16:27:01.613Z,2.85
2023-04-29T16:29:29.636Z,3.38
2023-04-29T16:31:57.560Z,3.70
2023-04-29T16:34:25.109Z,4.47
2023-04-29T16:36:52.826Z,4.70
2023-04-29T16:39:20.351Z,5.25
2023-04-29T16:41:48.042Z,5.35
2023-04-29T16:44:15.699Z,5.65
2023-04-29T16:46:43.420Z,5.80
2023-04-29T16:49:11.132Z,5.55
2023-04-29T16:51:39.093Z,5.38
2023-04-29T16:54:08.137Z,5.03
2023-04-29T16:56:36.144Z,5.07
2023-04-29T16:59:03.755Z,4.78
2023-04-29T17:01:32.266Z,4.65
2023-04-29T17:03:59.821Z,4.55
2023-04-29T17:06:27.904Z,3.95
2023-04-29T17:08:56.146Z,4.10
2023-04-29T17:11:24.326Z,3.95
2023-04-29T17:13:51.812Z,4.38
2023-04-29T17:16:19.731Z,5.10
2023-04-29T17:18:47.648Z,4.50
2023-04-29T17:21:15.535Z,4.53
2023-04-29T17:23:43.195Z,5.30
2023-04-29T17:26:11.377Z,5.00
2023-04-29T17:28:39.015Z,5.30
2023-04-29T17:31:07.135Z,3.65
2023-04-29T17:33:35.718Z,4.63
2023-04-29T17:36:03.832Z,2.85
2023-04-29T17:38:35.093Z,4.18
2023-04-29T17:41:02.745Z,4.10
2023-04-29T17:43:33.380Z,3.88
2023-04-29T17:46:01.086Z,4.17
2023-04-29T17:48:28.910Z,5.20
2023-04-29T17:50:56.565Z,6.22
2023-04-29T17:53:24.065Z,5.25
2023-04-29T17:55:51.576Z,4.53
2023-04-29T17:58:19.173Z,4.80
2023-04-29T18:00:47.452Z,4.53
2023-04-29T18:03:15.483Z,4.63
2023-04-29T18:05:44.095Z,4.53
2023-04-29T18:08:11.732Z,4.60
2023-04-29T18:10:39.489Z,4.80
2023-04-29T18:13:07.072Z,4.40
2023-04-29T18:15:36.048Z,4.32
2023-04-29T18:18:04.130Z,4.28
2023-04-29T18:20:32.755Z,4.43
2023-04-29T18:23:00.342Z,4.50
2023-04-29T18:25:28.071Z,4.05
2023-04-29T18:28:07.604Z,4.35
2023-04-29T18:30:41.062Z,4.07
2023-04-29T18:33:08.836Z,3.60
2023-04-29T18:35:37.847Z,3.58
2023-04-29T18:38:06.186Z,3.17
2023-04-29T18:40:33.930Z,3.50
2023-04-29T18:43:02.176Z,3.40
2023-04-29T18:45:29.781Z,3.47
2023-04-29T18:47:57.465Z,3.80
2023-04-29T18:50:25.132Z,4.35
2023-04-29T18:52:52.713Z,3.58
2023-04-29T18:55:20.424Z,3.67
2023-04-29T18:57:48.512Z,3.17
2023-04-29T19:00:16.676Z,3.03
2023-04-29T19:02:44.288Z,2.88
2023-04-29T19:05:13.023Z,3.08
2023-04-29T19:07:40.828Z,2.88
2023-04-29T19:10:08.944Z,3.05
2023-04-29T19:12:37.053Z,3.50
2023-04-29T19:15:05.143Z,2.88
2023-04-29T19:17:33.222Z,2.78
2023-04-29T19:20:01.064Z,2.95
2023-04-29T19:22:28.868Z,2.30
2023-04-29T19:24:56.530Z,2.50
2023-04-29T19:27:24.310Z,3.28
2023-04-29T19:29:52.288Z,3.03
2023-04-29T19:32:20.473Z,2.30
2023-04-29T19:34:48.049Z,2.60
2023-04-29T19:37:15.981Z,2.70
2023-04-29T19:39:43.790Z,2.38
2023-04-29T19:42:12.524Z,2.92
2023-04-29T19:44:40.229Z,3.00
2023-04-29T19:47:07.990Z,2.40
2023-04-29T19:49:36.592Z,2.92
2023-04-29T19:52:05.326Z,3.08
2023-04-29T19:54:35.022Z,3.65
2023-04-29T19:57:03.212Z,2.20
2023-04-29T19:59:31.326Z,3.10
2023-04-29T20:01:59.509Z,2.90
2023-04-29T20:04:27.120Z,2.85
2023-04-29T20:06:54.782Z,2.80
2023-04-29T20:09:22.426Z,2.88
2023-04-29T20:11:49.938Z,3.50
2023-04-29T20:14:17.388Z,3.60
2023-04-29T20:16:44.949Z,3.88
2023-04-29T20:19:12.450Z,3.72
2023-04-29T20:21:40.524Z,4.15
2023-04-29T20:24:08.293Z,4.35
2023-04-29T20:26:35.812Z,4.75
2023-04-29T20:29:03.781Z,4.55
2023-04-29T20:31:31.390Z,5.40
2023-04-29T20:33:58.939Z,6.25
2023-04-29T20:36:28.552Z,6.65
2023-04-29T20:38:56.094Z,6.40
2023-04-29T20:41:23.653Z,6.10
2023-04-29T20:43:52.071Z,5.07
2023-04-29T20:46:19.613Z,4.88
2023-04-29T20:48:47.306Z,4.00
2023-04-29T20:51:14.886Z,4.25
2023-04-29T20:53:42.441Z,3.67
2023-04-29T20:56:10.728Z,3.58
2023-04-29T20:58:38.257Z,4.13
2023-04-29T21:01:05.899Z,4.00
2023-04-29T21:03:34.860Z,3.90
2023-04-29T21:06:02.504Z,4.40
2023-04-29T21:08:30.312Z,3.95
2023-04-29T21:10:57.833Z,4.47
2023-04-29T21:13:26.156Z,4.50
2023-04-29T21:15:53.649Z,4.88
2023-04-29T21:18:21.242Z,4.57
2023-04-29T21:20:49.177Z,4.85
2023-04-29T21:23:16.831Z,4.43
2023-04-29T21:25:44.388Z,4.88
2023-04-29T21:28:12.529Z,5.40
2023-04-29T21:30:40.985Z,6.15
2023-04-29T21:33:08.710Z,5.90
2023-04-29T21:35:38.987Z,5.45
2023-04-29T21:38:06.552Z,5.68
2023-04-29T21:40:34.965Z,6.25
2023-04-29T21:43:02.568Z,6.10
2023-04-29T21:45:30.203Z,7.10
2023-04-29T21:47:59.709Z,7.10
2023-04-29T21:50:27.406Z,6.93
2023-04-29T21:52:55.775Z,7.90
2023-04-29T21:55:25.844Z,7.90
2023-04-29T21:57:53.818Z,8.23
2023-04-29T22:00:33.511Z,8.80
2023-04-29T22:03:02.158Z,8.43
2023-04-29T22:05:30.493Z,8.30
2023-04-29T22:07:58.976Z,9.05
2023-04-29T22:10:26.561Z,9.52
2023-04-29T22:12:54.304Z,10.25
2023-04-29T22:15:28.647Z,10.07
2023-04-29T22:17:57.494Z,9.65
2023-04-29T22:20:25.659Z,9.02
2023-04-29T22:22:53.739Z,10.75
2023-04-29T22:25:22.055Z,9.18
2023-04-29T22:27:50.371Z,10.30
2023-04-29T22:30:18.277Z,11.15
2023-04-29T22:32:46.038Z,11.20
2023-04-29T22:35:13.663Z,11.48
2023-04-29T22:37:43.716Z,11.55
2023-04-29T22:40:12.423Z,11.77
2023-04-29T22:42:41.986Z,11.65
2023-04-29T22:45:11.192Z,11.55
2023-04-29T22:47:38.972Z,12.10
2023-04-29T22:50:07.086Z,11.50
2023-04-29T22:52:34.957Z,11.70
2023-04-29T22:55:02.438Z,11.10
2023-04-29T22:57:30.488Z,11.27
2023-04-29T22:59:58.210Z,10.13
2023-04-29T23:02:29.695Z,11.18
2023-04-29T23:04:59.599Z,11.38
2023-04-29T23:07:27.638Z,10.93
2023-04-29T23:09:55.582Z,11.13
2023-04-29T23:12:24.470Z,9.93
2023-04-29T23:14:55.043Z,13.05
2023-04-29T23:17:22.949Z,11.80
2023-04-29T23:19:50.796Z,11.93
2023-04-29T23:22:18.505Z,11.90
2023-04-29T23:24:46.168Z,10.98
2023-04-29T23:27:14.129Z,12.30
2023-04-29T23:29:42.016Z,12.57
2023-04-29T23:32:10.057Z,11.98
2023-04-29T23:34:38.219Z,12.05
2023-04-29T23:37:05.678Z,13.80
2023-04-29T23:39:33.671Z,12.02
2023-04-29T23:42:01.322Z,13.48
2023-04-29T23:44:29.038Z,13.15
2023-04-29T23:46:56.748Z,12.43
2023-04-29T23:49:24.213Z,13.57
2023-04-29T23:51:51.817Z,14.32
2023-04-29T23:54:19.307Z,14.82
2023-04-29T23:56:46.942Z,14.02
2023-04-29T23:59:14.544Z,14.85
